sensor_id;sensor_type;location;lat;lon;timestamp;temperature;humidity
34877;DHT22;21086;44.780;17.194;2023-06-10T00:02:26;18.30;1.00
34877;DHT22;21086;44.780;17.194;2023-06-10T00:04:53;18.30;1.00
34877;DHT22;21086;44.780;17.194;2023-06-10T00:07:20;18.40;1.00
34877;DHT22;21086;44.780;17.194;2023-06-10T00:09:47;18.50;1.00
34877;DHT22;21086;44.780;17.194;2023-06-10T00:12:14;18.40;1.00
34877;DHT22;21086;44.780;17.194;2023-06-10T00:14:43;18.30;1.00
34877;DHT22;21086;44.780;17.194;2023-06-10T00:17:10;18.20;1.00
34877;DHT22;21086;44.780;17.194;2023-06-10T00:19:38;18.20;1.00
34877;DHT22;21086;44.780;17.194;2023-06-10T00:22:08;18.20;1.00
34877;DHT22;21086;44.780;17.194;2023-06-10T00:24:38;18.10;1.00
34877;DHT22;21086;44.780;17.194;2023-06-10T00:27:06;18.20;1.00
34877;DHT22;21086;44.780;17.194;2023-06-10T00:29:34;18.20;1.00
34877;DHT22;21086;44.780;17.194;2023-06-10T00:32:02;18.20;1.00
34877;DHT22;21086;44.780;17.194;2023-06-10T00:34:30;18.10;1.00
34877;DHT22;21086;44.780;17.194;2023-06-10T00:36:57;18.00;1.00
34877;DHT22;21086;44.780;17.194;2023-06-10T00:39:25;18.00;1.00
34877;DHT22;21086;44.780;17.194;2023-06-10T00:41:52;18.00;1.00
34877;DHT22;21086;44.780;17.194;2023-06-10T00:44:19;17.90;1.00
34877;DHT22;21086;44.780;17.194;2023-06-10T00:46:46;17.80;1.00
34877;DHT22;21086;44.780;17.194;2023-06-10T00:49:13;17.90;1.00
34877;DHT22;21086;44.780;17.194;2023-06-10T00:51:41;17.90;1.00
34877;DHT22;21086;44.780;17.194;2023-06-10T00:54:08;17.80;1.00
34877;DHT22;21086;44.780;17.194;2023-06-10T00:56:36;17.80;1.00
34877;DHT22;21086;44.780;17.194;2023-06-10T00:59:03;17.90;1.00
34877;DHT22;21086;44.780;17.194;2023-06-10T01:01:30;18.10;1.00
34877;DHT22;21086;44.780;17.194;2023-06-10T01:03:59;18.00;1.00
34877;DHT22;21086;44.780;17.194;2023-06-10T01:11:47;17.90;1.00
34877;DHT22;21086;44.780;17.194;2023-06-10T01:14:16;18.10;1.00
34877;DHT22;21086;44.780;17.194;2023-06-10T01:16:44;18.00;1.00
34877;DHT22;21086;44.780;17.194;2023-06-10T01:19:13;17.80;1.00
34877;DHT22;21086;44.780;17.194;2023-06-10T01:21:41;17.70;1.00
34877;DHT22;21086;44.780;17.194;2023-06-10T01:24:08;17.60;1.00
34877;DHT22;21086;44.780;17.194;2023-06-10T01:26:37;17.60;1.00
34877;DHT22;21086;44.780;17.194;2023-06-10T01:29:16;17.50;1.00
34877;DHT22;21086;44.780;17.194;2023-06-10T01:31:52;17.50;1.00
34877;DHT22;21086;44.780;17.194;2023-06-10T01:34:24;17.50;1.00
34877;DHT22;21086;44.780;17.194;2023-06-10T01:36:52;17.60;1.00
34877;DHT22;21086;44.780;17.194;2023-06-10T01:39:23;17.50;1.00
34877;DHT22;21086;44.780;17.194;2023-06-10T01:41:52;17.50;1.00
34877;DHT22;21086;44.780;17.194;2023-06-10T01:44:21;17.50;1.00
34877;DHT22;21086;44.780;17.194;2023-06-10T01:46:48;17.60;1.00
34877;DHT22;21086;44.780;17.194;2023-06-10T01:49:16;17.60;1.00
34877;DHT22;21086;44.780;17.194;2023-06-10T01:51:43;17.60;1.00
34877;DHT22;21086;44.780;17.194;2023-06-10T01:54:10;17.50;1.00
34877;DHT22;21086;44.780;17.194;2023-06-10T01:56:37;17.50;1.00
34877;DHT22;21086;44.780;17.194;2023-06-10T01:59:04;17.50;1.00
34877;DHT22;21086;44.780;17.194;2023-06-10T02:01:31;17.50;1.00
34877;DHT22;21086;44.780;17.194;2023-06-10T02:03:59;17.40;1.00
34877;DHT22;21086;44.780;17.194;2023-06-10T02:06:26;17.50;1.00
34877;DHT22;21086;44.780;17.194;2023-06-10T02:08:53;17.40;1.00
34877;DHT22;21086;44.780;17.194;2023-06-10T02:11:20;17.50;1.00
34877;DHT22;21086;44.780;17.194;2023-06-10T02:13:47;17.50;1.00
34877;DHT22;21086;44.780;17.194;2023-06-10T02:16:14;17.40;1.00
34877;DHT22;21086;44.780;17.194;2023-06-10T02:18:44;17.40;1.00
34877;DHT22;21086;44.780;17.194;2023-06-10T02:21:11;17.40;1.00
34877;DHT22;21086;44.780;17.194;2023-06-10T02:23:38;17.30;1.00
34877;DHT22;21086;44.780;17.194;2023-06-10T02:26:05;17.20;1.00
34877;DHT22;21086;44.780;17.194;2023-06-10T02:28:32;17.20;1.00
34877;DHT22;21086;44.780;17.194;2023-06-10T02:30:59;17.10;1.00
34877;DHT22;21086;44.780;17.194;2023-06-10T02:33:27;17.10;1.00
34877;DHT22;21086;44.780;17.194;2023-06-10T02:35:55;17.10;1.00
34877;DHT22;21086;44.780;17.194;2023-06-10T02:38:22;17.00;1.00
34877;DHT22;21086;44.780;17.194;2023-06-10T02:40:49;17.00;1.00
34877;DHT22;21086;44.780;17.194;2023-06-10T02:43:16;17.00;1.00
34877;DHT22;21086;44.780;17.194;2023-06-10T02:45:44;16.90;1.00
34877;DHT22;21086;44.780;17.194;2023-06-10T02:48:11;17.00;1.00
34877;DHT22;21086;44.780;17.194;2023-06-10T02:50:38;16.90;1.00
34877;DHT22;21086;44.780;17.194;2023-06-10T02:53:07;16.90;1.00
34877;DHT22;21086;44.780;17.194;2023-06-10T02:55:35;16.90;1.00
34877;DHT22;21086;44.780;17.194;2023-06-10T02:58:02;16.80;1.00
34877;DHT22;21086;44.780;17.194;2023-06-10T03:00:29;16.80;1.00
34877;DHT22;21086;44.780;17.194;2023-06-10T03:02:57;16.80;1.00
34877;DHT22;21086;44.780;17.194;2023-06-10T03:05:25;16.80;1.00
34877;DHT22;21086;44.780;17.194;2023-06-10T03:07:52;16.80;1.00
34877;DHT22;21086;44.780;17.194;2023-06-10T03:10:20;16.90;1.00
34877;DHT22;21086;44.780;17.194;2023-06-10T03:12:47;17.00;1.00
34877;DHT22;21086;44.780;17.194;2023-06-10T03:15:14;17.00;1.00
34877;DHT22;21086;44.780;17.194;2023-06-10T03:17:42;17.10;1.00
34877;DHT22;21086;44.780;17.194;2023-06-10T03:20:10;17.00;1.00
34877;DHT22;21086;44.780;17.194;2023-06-10T03:22:37;17.00;1.00
34877;DHT22;21086;44.780;17.194;2023-06-10T03:25:07;16.90;1.00
34877;DHT22;21086;44.780;17.194;2023-06-10T03:27:41;16.90;1.00
34877;DHT22;21086;44.780;17.194;2023-06-10T03:30:09;16.80;1.00
34877;DHT22;21086;44.780;17.194;2023-06-10T03:32:36;16.90;1.00
34877;DHT22;21086;44.780;17.194;2023-06-10T03:35:04;16.90;1.00
34877;DHT22;21086;44.780;17.194;2023-06-10T03:37:32;17.00;1.00
34877;DHT22;21086;44.780;17.194;2023-06-10T03:39:59;17.00;1.00
34877;DHT22;21086;44.780;17.194;2023-06-10T03:42:26;17.10;1.00
34877;DHT22;21086;44.780;17.194;2023-06-10T03:44:53;17.20;1.00
34877;DHT22;21086;44.780;17.194;2023-06-10T03:47:20;17.20;1.00
34877;DHT22;21086;44.780;17.194;2023-06-10T03:49:47;17.30;1.00
34877;DHT22;21086;44.780;17.194;2023-06-10T03:52:14;17.40;1.00
34877;DHT22;21086;44.780;17.194;2023-06-10T03:54:42;17.40;1.00
34877;DHT22;21086;44.780;17.194;2023-06-10T03:57:09;17.40;1.00
34877;DHT22;21086;44.780;17.194;2023-06-10T03:59:36;17.50;1.00
34877;DHT22;21086;44.780;17.194;2023-06-10T04:02:03;17.60;1.00
34877;DHT22;21086;44.780;17.194;2023-06-10T04:04:32;17.70;1.00
34877;DHT22;21086;44.780;17.194;2023-06-10T04:06:59;17.80;1.00
34877;DHT22;21086;44.780;17.194;2023-06-10T04:09:26;18.00;1.00
34877;DHT22;21086;44.780;17.194;2023-06-10T04:11:53;18.00;1.00
34877;DHT22;21086;44.780;17.194;2023-06-10T04:14:19;18.10;1.00
34877;DHT22;21086;44.780;17.194;2023-06-10T04:16:47;18.20;1.00
34877;DHT22;21086;44.780;17.194;2023-06-10T04:19:14;18.20;1.00
34877;DHT22;21086;44.780;17.194;2023-06-10T04:21:42;18.20;1.00
34877;DHT22;21086;44.780;17.194;2023-06-10T04:24:09;18.20;1.00
34877;DHT22;21086;44.780;17.194;2023-06-10T04:26:36;18.30;1.00
34877;DHT22;21086;44.780;17.194;2023-06-10T04:29:04;18.30;1.00
34877;DHT22;21086;44.780;17.194;2023-06-10T04:31:31;18.30;1.00
34877;DHT22;21086;44.780;17.194;2023-06-10T04:33:59;18.30;1.00
34877;DHT22;21086;44.780;17.194;2023-06-10T04:36:28;18.40;1.00
34877;DHT22;21086;44.780;17.194;2023-06-10T04:38:56;18.40;1.00
34877;DHT22;21086;44.780;17.194;2023-06-10T04:41:23;18.50;1.00
34877;DHT22;21086;44.780;17.194;2023-06-10T04:43:51;18.50;1.00
34877;DHT22;21086;44.780;17.194;2023-06-10T04:46:18;18.50;1.00
34877;DHT22;21086;44.780;17.194;2023-06-10T04:48:45;18.60;1.00
34877;DHT22;21086;44.780;17.194;2023-06-10T04:51:14;18.50;1.00
34877;DHT22;21086;44.780;17.194;2023-06-10T04:53:41;18.60;1.00
34877;DHT22;21086;44.780;17.194;2023-06-10T04:56:08;18.70;1.00
34877;DHT22;21086;44.780;17.194;2023-06-10T04:58:35;18.70;1.00
34877;DHT22;21086;44.780;17.194;2023-06-10T05:01:02;18.70;1.00
34877;DHT22;21086;44.780;17.194;2023-06-10T05:03:30;18.70;1.00
34877;DHT22;21086;44.780;17.194;2023-06-10T05:05:57;18.80;1.00
34877;DHT22;21086;44.780;17.194;2023-06-10T05:08:24;19.00;1.00
34877;DHT22;21086;44.780;17.194;2023-06-10T05:10:51;19.10;1.00
34877;DHT22;21086;44.780;17.194;2023-06-10T05:13:18;19.20;1.00
34877;DHT22;21086;44.780;17.194;2023-06-10T05:15:45;19.20;1.00
34877;DHT22;21086;44.780;17.194;2023-06-10T05:18:13;19.30;1.00
34877;DHT22;21086;44.780;17.194;2023-06-10T05:20:40;19.50;1.00
34877;DHT22;21086;44.780;17.194;2023-06-10T05:23:07;19.90;1.00
34877;DHT22;21086;44.780;17.194;2023-06-10T05:25:34;20.00;1.00
34877;DHT22;21086;44.780;17.194;2023-06-10T05:28:01;20.00;1.00
34877;DHT22;21086;44.780;17.194;2023-06-10T05:30:29;20.10;1.00
34877;DHT22;21086;44.780;17.194;2023-06-10T05:32:56;20.20;1.00
34877;DHT22;21086;44.780;17.194;2023-06-10T05:35:23;20.30;1.00
34877;DHT22;21086;44.780;17.194;2023-06-10T05:37:51;20.30;1.00
34877;DHT22;21086;44.780;17.194;2023-06-10T05:40:18;20.40;1.00
34877;DHT22;21086;44.780;17.194;2023-06-10T05:42:45;20.50;1.00
34877;DHT22;21086;44.780;17.194;2023-06-10T05:45:13;20.60;1.00
34877;DHT22;21086;44.780;17.194;2023-06-10T05:47:40;20.70;1.00
34877;DHT22;21086;44.780;17.194;2023-06-10T05:50:07;21.00;1.00
34877;DHT22;21086;44.780;17.194;2023-06-10T05:52:36;21.30;1.00
34877;DHT22;21086;44.780;17.194;2023-06-10T05:55:03;21.60;1.00
34877;DHT22;21086;44.780;17.194;2023-06-10T05:57:31;21.90;1.00
34877;DHT22;21086;44.780;17.194;2023-06-10T05:59:58;22.30;1.00
34877;DHT22;21086;44.780;17.194;2023-06-10T06:02:25;22.50;1.00
34877;DHT22;21086;44.780;17.194;2023-06-10T06:04:53;22.60;1.00
34877;DHT22;21086;44.780;17.194;2023-06-10T06:07:20;22.60;1.00
34877;DHT22;21086;44.780;17.194;2023-06-10T06:09:47;22.50;1.00
34877;DHT22;21086;44.780;17.194;2023-06-10T06:12:15;22.30;1.00
34877;DHT22;21086;44.780;17.194;2023-06-10T06:14:42;22.40;1.00
34877;DHT22;21086;44.780;17.194;2023-06-10T06:17:09;22.10;1.00
34877;DHT22;21086;44.780;17.194;2023-06-10T06:19:36;22.00;1.00
34877;DHT22;21086;44.780;17.194;2023-06-10T06:22:03;21.90;1.00
34877;DHT22;21086;44.780;17.194;2023-06-10T06:24:30;21.80;1.00
34877;DHT22;21086;44.780;17.194;2023-06-10T06:26:58;21.60;1.00
34877;DHT22;21086;44.780;17.194;2023-06-10T06:29:24;21.60;1.00
34877;DHT22;21086;44.780;17.194;2023-06-10T06:31:52;21.60;1.00
34877;DHT22;21086;44.780;17.194;2023-06-10T06:34:19;21.60;1.00
34877;DHT22;21086;44.780;17.194;2023-06-10T06:36:46;21.80;1.00
34877;DHT22;21086;44.780;17.194;2023-06-10T06:39:13;21.90;1.00
34877;DHT22;21086;44.780;17.194;2023-06-10T06:41:41;22.00;1.00
34877;DHT22;21086;44.780;17.194;2023-06-10T06:44:08;22.10;1.00
34877;DHT22;21086;44.780;17.194;2023-06-10T06:46:35;22.10;1.00
34877;DHT22;21086;44.780;17.194;2023-06-10T06:49:02;22.40;1.00
34877;DHT22;21086;44.780;17.194;2023-06-10T06:51:29;22.30;1.00
34877;DHT22;21086;44.780;17.194;2023-06-10T06:53:56;22.30;1.00
34877;DHT22;21086;44.780;17.194;2023-06-10T06:56:25;22.50;1.00
34877;DHT22;21086;44.780;17.194;2023-06-10T06:58:54;22.50;1.00
34877;DHT22;21086;44.780;17.194;2023-06-10T07:01:23;22.60;1.00
34877;DHT22;21086;44.780;17.194;2023-06-10T07:03:50;22.60;1.00
34877;DHT22;21086;44.780;17.194;2023-06-10T07:06:17;22.70;1.00
34877;DHT22;21086;44.780;17.194;2023-06-10T07:08:44;22.90;1.00
34877;DHT22;21086;44.780;17.194;2023-06-10T07:11:11;23.00;1.00
34877;DHT22;21086;44.780;17.194;2023-06-10T07:13:39;23.00;1.00
34877;DHT22;21086;44.780;17.194;2023-06-10T07:16:11;23.10;1.00
34877;DHT22;21086;44.780;17.194;2023-06-10T07:18:38;23.20;1.00
34877;DHT22;21086;44.780;17.194;2023-06-10T07:21:13;23.30;1.00
34877;DHT22;21086;44.780;17.194;2023-06-10T07:23:43;24.30;1.00
34877;DHT22;21086;44.780;17.194;2023-06-10T07:26:12;23.70;1.00
34877;DHT22;21086;44.780;17.194;2023-06-10T07:28:41;23.90;1.00
34877;DHT22;21086;44.780;17.194;2023-06-10T07:31:08;24.10;1.00
34877;DHT22;21086;44.780;17.194;2023-06-10T07:33:35;24.30;1.00
34877;DHT22;21086;44.780;17.194;2023-06-10T07:36:03;24.40;1.00
34877;DHT22;21086;44.780;17.194;2023-06-10T07:38:31;24.60;1.00
34877;DHT22;21086;44.780;17.194;2023-06-10T07:40:58;24.60;1.00
34877;DHT22;21086;44.780;17.194;2023-06-10T07:43:25;24.60;1.00
34877;DHT22;21086;44.780;17.194;2023-06-10T07:45:52;24.70;1.00
34877;DHT22;21086;44.780;17.194;2023-06-10T07:48:19;24.80;1.00
34877;DHT22;21086;44.780;17.194;2023-06-10T07:50:47;24.90;99.90
34877;DHT22;21086;44.780;17.194;2023-06-10T07:53:14;24.90;99.90
34877;DHT22;21086;44.780;17.194;2023-06-10T07:55:41;25.00;99.90
34877;DHT22;21086;44.780;17.194;2023-06-10T07:58:07;24.80;99.90
34877;DHT22;21086;44.780;17.194;2023-06-10T08:00:34;24.80;99.90
34877;DHT22;21086;44.780;17.194;2023-06-10T08:03:02;24.70;99.90
34877;DHT22;21086;44.780;17.194;2023-06-10T08:05:29;24.80;99.90
34877;DHT22;21086;44.780;17.194;2023-06-10T08:07:57;24.80;99.90
34877;DHT22;21086;44.780;17.194;2023-06-10T08:10:26;24.90;99.90
34877;DHT22;21086;44.780;17.194;2023-06-10T08:12:53;24.60;99.90
34877;DHT22;21086;44.780;17.194;2023-06-10T08:15:20;24.70;99.90
34877;DHT22;21086;44.780;17.194;2023-06-10T08:17:48;24.90;99.90
34877;DHT22;21086;44.780;17.194;2023-06-10T08:20:15;25.00;99.90
34877;DHT22;21086;44.780;17.194;2023-06-10T08:22:42;25.20;99.90
34877;DHT22;21086;44.780;17.194;2023-06-10T08:25:09;25.40;99.90
34877;DHT22;21086;44.780;17.194;2023-06-10T08:27:37;25.60;99.90
34877;DHT22;21086;44.780;17.194;2023-06-10T08:30:05;25.70;99.90
34877;DHT22;21086;44.780;17.194;2023-06-10T08:32:32;25.90;99.90
34877;DHT22;21086;44.780;17.194;2023-06-10T08:34:59;25.80;99.90
34877;DHT22;21086;44.780;17.194;2023-06-10T08:37:26;25.70;99.90
34877;DHT22;21086;44.780;17.194;2023-06-10T08:39:53;25.60;99.90
34877;DHT22;21086;44.780;17.194;2023-06-10T08:42:45;25.70;99.90
34877;DHT22;21086;44.780;17.194;2023-06-10T08:45:18;26.00;99.90
34877;DHT22;21086;44.780;17.194;2023-06-10T08:47:46;26.20;99.90
34877;DHT22;21086;44.780;17.194;2023-06-10T08:50:17;26.30;99.90
34877;DHT22;21086;44.780;17.194;2023-06-10T08:52:44;26.30;99.90
34877;DHT22;21086;44.780;17.194;2023-06-10T08:55:33;26.30;99.90
34877;DHT22;21086;44.780;17.194;2023-06-10T08:58:03;26.30;99.90
34877;DHT22;21086;44.780;17.194;2023-06-10T09:00:31;26.50;99.90
34877;DHT22;21086;44.780;17.194;2023-06-10T09:02:59;26.80;99.90
34877;DHT22;21086;44.780;17.194;2023-06-10T09:05:33;27.00;99.90
34877;DHT22;21086;44.780;17.194;2023-06-10T09:08:01;27.20;99.90
34877;DHT22;21086;44.780;17.194;2023-06-10T09:10:29;27.30;99.90
34877;DHT22;21086;44.780;17.194;2023-06-10T09:12:57;27.50;99.90
34877;DHT22;21086;44.780;17.194;2023-06-10T09:15:27;27.80;99.90
34877;DHT22;21086;44.780;17.194;2023-06-10T09:17:54;27.80;99.90
34877;DHT22;21086;44.780;17.194;2023-06-10T09:20:21;27.80;99.90
34877;DHT22;21086;44.780;17.194;2023-06-10T09:22:48;27.80;99.90
34877;DHT22;21086;44.780;17.194;2023-06-10T09:25:15;27.80;99.90
34877;DHT22;21086;44.780;17.194;2023-06-10T09:27:52;27.90;99.90
34877;DHT22;21086;44.780;17.194;2023-06-10T09:30:26;28.10;99.90
34877;DHT22;21086;44.780;17.194;2023-06-10T09:32:58;28.00;99.90
34877;DHT22;21086;44.780;17.194;2023-06-10T09:35:28;28.00;99.90
34877;DHT22;21086;44.780;17.194;2023-06-10T09:37:59;27.90;99.90
34877;DHT22;21086;44.780;17.194;2023-06-10T09:40:27;27.70;99.90
34877;DHT22;21086;44.780;17.194;2023-06-10T09:43:00;27.70;99.90
34877;DHT22;21086;44.780;17.194;2023-06-10T09:45:30;27.60;99.90
34877;DHT22;21086;44.780;17.194;2023-06-10T09:48:00;27.50;99.90
34877;DHT22;21086;44.780;17.194;2023-06-10T09:50:28;27.40;99.90
34877;DHT22;21086;44.780;17.194;2023-06-10T09:52:59;27.50;99.90
34877;DHT22;21086;44.780;17.194;2023-06-10T09:55:27;27.50;99.90
34877;DHT22;21086;44.780;17.194;2023-06-10T09:57:54;27.60;99.90
34877;DHT22;21086;44.780;17.194;2023-06-10T10:00:22;27.50;99.90
34877;DHT22;21086;44.780;17.194;2023-06-10T10:02:51;27.60;99.90
34877;DHT22;21086;44.780;17.194;2023-06-10T10:05:20;27.50;99.90
34877;DHT22;21086;44.780;17.194;2023-06-10T10:07:48;27.40;99.90
34877;DHT22;21086;44.780;17.194;2023-06-10T10:10:17;27.50;99.90
34877;DHT22;21086;44.780;17.194;2023-06-10T10:12:47;27.60;99.90
34877;DHT22;21086;44.780;17.194;2023-06-10T10:15:17;27.50;99.90
34877;DHT22;21086;44.780;17.194;2023-06-10T10:17:51;27.40;99.90
34877;DHT22;21086;44.780;17.194;2023-06-10T10:20:24;27.50;99.90
34877;DHT22;21086;44.780;17.194;2023-06-10T10:22:52;27.40;99.90
34877;DHT22;21086;44.780;17.194;2023-06-10T10:25:40;27.40;99.90
34877;DHT22;21086;44.780;17.194;2023-06-10T10:28:12;27.50;99.90
34877;DHT22;21086;44.780;17.194;2023-06-10T10:30:41;27.60;99.90
34877;DHT22;21086;44.780;17.194;2023-06-10T10:33:36;27.70;99.90
34877;DHT22;21086;44.780;17.194;2023-06-10T10:36:06;27.90;99.90
34877;DHT22;21086;44.780;17.194;2023-06-10T10:38:35;27.90;99.90
34877;DHT22;21086;44.780;17.194;2023-06-10T10:41:04;27.90;99.90
34877;DHT22;21086;44.780;17.194;2023-06-10T10:43:32;28.20;99.90
34877;DHT22;21086;44.780;17.194;2023-06-10T10:46:11;28.30;99.90
34877;DHT22;21086;44.780;17.194;2023-06-10T10:48:39;28.40;99.90
34877;DHT22;21086;44.780;17.194;2023-06-10T10:51:09;28.50;99.90
34877;DHT22;21086;44.780;17.194;2023-06-10T10:53:39;28.70;99.90
34877;DHT22;21086;44.780;17.194;2023-06-10T10:56:12;28.90;99.90
34877;DHT22;21086;44.780;17.194;2023-06-10T10:58:41;29.00;99.90
34877;DHT22;21086;44.780;17.194;2023-06-10T11:01:14;29.40;99.90
34877;DHT22;21086;44.780;17.194;2023-06-10T11:03:45;29.50;99.90
34877;DHT22;21086;44.780;17.194;2023-06-10T11:06:18;29.70;99.90
34877;DHT22;21086;44.780;17.194;2023-06-10T11:08:45;29.80;99.90
34877;DHT22;21086;44.780;17.194;2023-06-10T11:11:23;29.90;99.90
34877;DHT22;21086;44.780;17.194;2023-06-10T11:16:41;30.10;99.90
34877;DHT22;21086;44.780;17.194;2023-06-10T11:19:09;30.00;99.90
34877;DHT22;21086;44.780;17.194;2023-06-10T11:21:58;30.20;99.90
34877;DHT22;21086;44.780;17.194;2023-06-10T11:24:29;30.20;99.90
34877;DHT22;21086;44.780;17.194;2023-06-10T11:27:15;30.50;99.90
34877;DHT22;21086;44.780;17.194;2023-06-10T11:30:18;30.80;99.90
34877;DHT22;21086;44.780;17.194;2023-06-10T11:32:52;30.80;99.90
34877;DHT22;21086;44.780;17.194;2023-06-10T11:35:20;31.10;99.90
34877;DHT22;21086;44.780;17.194;2023-06-10T11:37:48;31.00;99.90
34877;DHT22;21086;44.780;17.194;2023-06-10T11:40:15;30.90;99.90
34877;DHT22;21086;44.780;17.194;2023-06-10T11:42:44;31.00;99.90
34877;DHT22;21086;44.780;17.194;2023-06-10T11:45:15;31.10;99.90
34877;DHT22;21086;44.780;17.194;2023-06-10T11:47:56;31.10;99.90
34877;DHT22;21086;44.780;17.194;2023-06-10T11:50:33;31.30;99.90
34877;DHT22;21086;44.780;17.194;2023-06-10T11:53:00;31.50;99.90
34877;DHT22;21086;44.780;17.194;2023-06-10T11:55:47;31.50;99.90
34877;DHT22;21086;44.780;17.194;2023-06-10T11:58:18;31.40;99.90
34877;DHT22;21086;44.780;17.194;2023-06-10T12:00:55;31.40;99.90
34877;DHT22;21086;44.780;17.194;2023-06-10T12:03:25;31.60;99.90
34877;DHT22;21086;44.780;17.194;2023-06-10T12:05:57;31.60;99.90
34877;DHT22;21086;44.780;17.194;2023-06-10T12:08:25;31.80;99.90
34877;DHT22;21086;44.780;17.194;2023-06-10T12:10:53;31.70;99.90
34877;DHT22;21086;44.780;17.194;2023-06-10T12:13:20;31.90;99.90
34877;DHT22;21086;44.780;17.194;2023-06-10T12:15:47;31.80;99.90
34877;DHT22;21086;44.780;17.194;2023-06-10T12:18:22;31.90;99.90
34877;DHT22;21086;44.780;17.194;2023-06-10T12:20:50;32.00;99.90
34877;DHT22;21086;44.780;17.194;2023-06-10T12:23:18;32.20;99.90
34877;DHT22;21086;44.780;17.194;2023-06-10T12:25:51;32.40;99.90
34877;DHT22;21086;44.780;17.194;2023-06-10T12:28:23;32.50;99.90
34877;DHT22;21086;44.780;17.194;2023-06-10T12:30:51;32.40;99.90
34877;DHT22;21086;44.780;17.194;2023-06-10T12:33:21;32.60;99.90
34877;DHT22;21086;44.780;17.194;2023-06-10T12:35:52;32.70;99.90
34877;DHT22;21086;44.780;17.194;2023-06-10T12:38:24;33.00;99.90
34877;DHT22;21086;44.780;17.194;2023-06-10T12:40:51;32.90;99.90
34877;DHT22;21086;44.780;17.194;2023-06-10T12:43:28;32.80;99.90
34877;DHT22;21086;44.780;17.194;2023-06-10T12:46:08;33.10;99.90
34877;DHT22;21086;44.780;17.194;2023-06-10T12:48:36;33.10;99.90
34877;DHT22;21086;44.780;17.194;2023-06-10T12:51:03;33.10;99.90
34877;DHT22;21086;44.780;17.194;2023-06-10T12:53:30;33.20;99.90
34877;DHT22;21086;44.780;17.194;2023-06-10T12:55:57;33.30;99.90
34877;DHT22;21086;44.780;17.194;2023-06-10T12:58:24;33.40;99.90
34877;DHT22;21086;44.780;17.194;2023-06-10T13:00:51;33.70;99.90
34877;DHT22;21086;44.780;17.194;2023-06-10T13:03:20;33.90;99.90
34877;DHT22;21086;44.780;17.194;2023-06-10T13:05:48;34.00;99.90
34877;DHT22;21086;44.780;17.194;2023-06-10T13:08:15;34.30;99.90
34877;DHT22;21086;44.780;17.194;2023-06-10T13:10:43;34.70;99.90
34877;DHT22;21086;44.780;17.194;2023-06-10T13:13:10;35.00;99.90
34877;DHT22;21086;44.780;17.194;2023-06-10T13:15:37;35.00;99.90
34877;DHT22;21086;44.780;17.194;2023-06-10T13:18:09;35.10;99.90
34877;DHT22;21086;44.780;17.194;2023-06-10T13:20:37;35.70;99.90
34877;DHT22;21086;44.780;17.194;2023-06-10T13:23:04;36.10;99.90
34877;DHT22;21086;44.780;17.194;2023-06-10T13:25:31;37.10;99.90
34877;DHT22;21086;44.780;17.194;2023-06-10T13:27:59;37.80;99.90
34877;DHT22;21086;44.780;17.194;2023-06-10T13:30:26;38.30;99.90
34877;DHT22;21086;44.780;17.194;2023-06-10T13:32:53;37.50;99.90
34877;DHT22;21086;44.780;17.194;2023-06-10T13:35:20;36.30;99.90
34877;DHT22;21086;44.780;17.194;2023-06-10T13:37:47;35.80;99.90
34877;DHT22;21086;44.780;17.194;2023-06-10T13:40:14;34.60;99.90
34877;DHT22;21086;44.780;17.194;2023-06-10T13:42:42;34.40;99.90
34877;DHT22;21086;44.780;17.194;2023-06-10T13:45:09;34.20;99.90
34877;DHT22;21086;44.780;17.194;2023-06-10T13:47:37;34.30;99.90
34877;DHT22;21086;44.780;17.194;2023-06-10T13:50:06;34.20;99.90
34877;DHT22;21086;44.780;17.194;2023-06-10T13:52:33;33.50;99.90
34877;DHT22;21086;44.780;17.194;2023-06-10T13:55:00;33.20;99.90
34877;DHT22;21086;44.780;17.194;2023-06-10T13:57:26;32.90;99.90
34877;DHT22;21086;44.780;17.194;2023-06-10T13:59:53;32.60;99.90
34877;DHT22;21086;44.780;17.194;2023-06-10T14:02:22;32.20;99.90
34877;DHT22;21086;44.780;17.194;2023-06-10T14:04:49;31.90;99.90
34877;DHT22;21086;44.780;17.194;2023-06-10T14:07:16;31.40;99.90
34877;DHT22;21086;44.780;17.194;2023-06-10T14:09:44;31.10;99.90
34877;DHT22;21086;44.780;17.194;2023-06-10T14:12:12;31.20;99.90
34877;DHT22;21086;44.780;17.194;2023-06-10T14:14:39;30.80;99.90
34877;DHT22;21086;44.780;17.194;2023-06-10T14:17:06;30.50;99.90
34877;DHT22;21086;44.780;17.194;2023-06-10T14:19:34;30.60;99.90
34877;DHT22;21086;44.780;17.194;2023-06-10T14:22:01;30.70;99.90
34877;DHT22;21086;44.780;17.194;2023-06-10T14:24:29;30.60;99.90
34877;DHT22;21086;44.780;17.194;2023-06-10T14:26:57;30.70;99.90
34877;DHT22;21086;44.780;17.194;2023-06-10T14:29:25;30.90;99.90
34877;DHT22;21086;44.780;17.194;2023-06-10T14:31:55;30.70;99.90
34877;DHT22;21086;44.780;17.194;2023-06-10T14:34:23;30.90;99.90
34877;DHT22;21086;44.780;17.194;2023-06-10T14:36:55;31.50;99.90
34877;DHT22;21086;44.780;17.194;2023-06-10T14:39:22;31.50;99.90
34877;DHT22;21086;44.780;17.194;2023-06-10T14:41:50;31.40;99.90
34877;DHT22;21086;44.780;17.194;2023-06-10T14:44:19;30.90;99.90
34877;DHT22;21086;44.780;17.194;2023-06-10T14:46:46;30.70;99.90
34877;DHT22;21086;44.780;17.194;2023-06-10T14:49:14;30.60;99.90
34877;DHT22;21086;44.780;17.194;2023-06-10T14:51:41;30.20;99.90
34877;DHT22;21086;44.780;17.194;2023-06-10T14:54:08;30.10;99.90
34877;DHT22;21086;44.780;17.194;2023-06-10T14:56:35;30.10;99.90
34877;DHT22;21086;44.780;17.194;2023-06-10T14:59:02;30.10;99.90
34877;DHT22;21086;44.780;17.194;2023-06-10T15:01:29;30.20;99.90
34877;DHT22;21086;44.780;17.194;2023-06-10T15:03:56;30.30;99.90
34877;DHT22;21086;44.780;17.194;2023-06-10T15:06:23;30.80;99.90
34877;DHT22;21086;44.780;17.194;2023-06-10T15:08:50;31.40;99.90
34877;DHT22;21086;44.780;17.194;2023-06-10T15:11:18;32.90;99.90
34877;DHT22;21086;44.780;17.194;2023-06-10T15:13:45;34.60;99.90
34877;DHT22;21086;44.780;17.194;2023-06-10T15:16:12;35.70;99.90
34877;DHT22;21086;44.780;17.194;2023-06-10T15:18:40;38.70;99.90
34877;DHT22;21086;44.780;17.194;2023-06-10T15:21:07;41.00;99.90
34877;DHT22;21086;44.780;17.194;2023-06-10T15:23:34;43.50;99.90
34877;DHT22;21086;44.780;17.194;2023-06-10T15:26:01;45.70;99.90
34877;DHT22;21086;44.780;17.194;2023-06-10T15:28:28;46.80;99.90
34877;DHT22;21086;44.780;17.194;2023-06-10T15:30:55;47.70;99.90
34877;DHT22;21086;44.780;17.194;2023-06-10T15:33:22;48.20;99.90
34877;DHT22;21086;44.780;17.194;2023-06-10T15:35:49;48.90;99.90
34877;DHT22;21086;44.780;17.194;2023-06-10T15:38:16;48.90;99.90
34877;DHT22;21086;44.780;17.194;2023-06-10T15:40:43;48.40;99.90